createdAt,value
2022-12-22T00:00:09.752Z,19.67
2022-12-22T00:03:00.769Z,24.58
2022-12-22T00:05:45.697Z,23.88
2022-12-22T00:08:30.829Z,24.08
2022-12-22T00:11:16.856Z,24.60
2022-12-22T00:14:04.417Z,22.88
2022-12-22T00:16:56.345Z,18.50
2022-12-22T00:19:41.903Z,25.00
2022-12-22T00:22:41.799Z,23.83
2022-12-22T00:25:32.158Z,23.63
2022-12-22T00:28:17.330Z,23.17
2022-12-22T00:31:04.078Z,25.70
2022-12-22T00:33:49.352Z,22.83
2022-12-22T00:36:34.326Z,25.45
2022-12-22T00:39:20.231Z,22.77
2022-12-22T00:42:04.990Z,24.27
2022-12-22T00:44:50.342Z,27.35
2022-12-22T00:47:43.765Z,24.45
2022-12-22T00:50:29.765Z,24.38
2022-12-22T00:53:16.436Z,26.45
2022-12-22T00:56:01.414Z,28.17
2022-12-22T00:58:49.673Z,28.40
2022-12-22T01:01:34.866Z,27.60
2022-12-22T01:04:19.770Z,30.42
2022-12-22T01:07:04.945Z,27.98
2022-12-22T01:09:50.115Z,28.58
2022-12-22T01:12:41.452Z,32.15
2022-12-22T01:15:36.392Z,29.70
2022-12-22T01:18:22.029Z,33.33
2022-12-22T01:21:07.384Z,31.42
2022-12-22T01:23:52.956Z,33.50
2022-12-22T01:26:39.258Z,31.85
2022-12-22T01:29:24.332Z,35.55
2022-12-22T01:32:09.237Z,30.00
2022-12-22T01:34:54.821Z,34.97
2022-12-22T01:37:40.082Z,36.13
2022-12-22T01:40:31.855Z,43.03
2022-12-22T01:43:20.246Z,38.70
2022-12-22T01:46:05.060Z,33.15
2022-12-22T01:48:51.321Z,40.08
2022-12-22T01:51:43.578Z,37.20
2022-12-22T01:54:30.672Z,38.22
2022-12-22T01:57:15.970Z,35.50
2022-12-22T02:00:01.987Z,37.58
2022-12-22T02:02:57.270Z,32.55
2022-12-22T02:05:42.394Z,35.10
2022-12-22T02:08:44.093Z,31.17
2022-12-22T02:11:48.507Z,34.13
2022-12-22T02:14:44.471Z,33.97
2022-12-22T02:44:12.311Z,36.17
2022-12-22T02:47:12.720Z,32.28
2022-12-22T02:50:05.268Z,30.77
2022-12-22T02:52:54.852Z,34.67
2022-12-22T02:55:40.494Z,28.88
2022-12-22T02:58:25.475Z,29.00
2022-12-22T03:01:10.874Z,30.60
2022-12-22T03:03:56.149Z,32.28
2022-12-22T03:06:41.109Z,31.25
2022-12-22T03:09:26.036Z,28.85
2022-12-22T03:12:10.928Z,29.15
2022-12-22T03:14:55.993Z,32.08
2022-12-22T03:17:41.205Z,27.80
2022-12-22T03:20:26.859Z,29.80
2022-12-22T03:23:12.022Z,28.77
2022-12-22T03:25:50.409Z,28.02
2022-12-22T03:28:16.823Z,31.33
2022-12-22T03:30:43.258Z,30.15
2022-12-22T03:33:09.639Z,29.50
2022-12-22T03:35:36.046Z,26.17
2022-12-22T03:38:03.465Z,26.77
2022-12-22T03:40:32.875Z,28.83
2022-12-22T03:43:18.037Z,28.75
2022-12-22T03:46:02.994Z,27.23
2022-12-22T03:48:29.404Z,29.85
2022-12-22T03:50:55.818Z,28.85
2022-12-22T03:53:22.271Z,26.67
2022-12-22T03:55:48.771Z,38.55
2022-12-22T03:58:15.194Z,30.17
2022-12-22T04:00:41.691Z,30.63
2022-12-22T04:03:08.335Z,33.78
2022-12-22T04:05:35.395Z,30.77
2022-12-22T04:08:01.815Z,29.88
2022-12-22T04:10:46.788Z,30.75
2022-12-22T04:13:13.183Z,31.40
2022-12-22T04:15:39.606Z,25.60
2022-12-22T04:18:06.018Z,31.55
2022-12-22T04:20:32.567Z,30.75
2022-12-22T04:22:59.132Z,26.80
2022-12-22T04:25:26.674Z,31.73
2022-12-22T04:27:53.251Z,28.52
2022-12-22T04:30:19.670Z,31.67
2022-12-22T04:32:46.139Z,34.22
2022-12-22T04:35:12.531Z,31.50
2022-12-22T04:37:38.935Z,32.85
2022-12-22T04:40:06.049Z,35.03
2022-12-22T04:42:32.455Z,35.83
2022-12-22T04:44:58.927Z,36.45
2022-12-22T04:47:25.316Z,34.60
2022-12-22T04:49:51.712Z,34.78
2022-12-22T04:52:18.151Z,36.13
2022-12-22T04:54:44.551Z,36.05
2022-12-22T04:57:11.336Z,32.65
2022-12-22T04:59:37.765Z,37.88
2022-12-22T05:02:04.464Z,31.88
2022-12-22T05:04:31.051Z,37.92
2022-12-22T05:06:57.441Z,40.65
2022-12-22T05:09:23.818Z,39.25
2022-12-22T05:11:50.224Z,35.88
2022-12-22T05:14:17.097Z,39.85
2022-12-22T05:16:43.628Z,39.15
2022-12-22T05:19:10.186Z,39.88
2022-12-22T05:21:36.613Z,41.08
2022-12-22T05:24:03.245Z,42.85
2022-12-22T05:26:29.852Z,41.95
2022-12-22T05:28:56.338Z,41.35
2022-12-22T05:31:24.784Z,35.67
2022-12-22T05:33:51.365Z,39.70
2022-12-22T05:36:18.210Z,45.30
2022-12-22T05:38:45.553Z,40.20
2022-12-22T05:41:12.036Z,40.60
2022-12-22T05:43:38.684Z,44.40
2022-12-22T05:46:07.304Z,41.95
2022-12-22T05:48:38.552Z,41.70
2022-12-22T05:51:07.752Z,41.30
2022-12-22T05:53:34.282Z,40.20
2022-12-22T05:56:00.760Z,35.78
2022-12-22T05:58:27.185Z,43.15
2022-12-22T06:00:56.820Z,43.00
2022-12-22T06:03:27.416Z,40.67
2022-12-22T06:05:54.646Z,45.70
2022-12-22T06:08:21.234Z,40.38
2022-12-22T06:10:48.720Z,42.63
2022-12-22T06:13:15.225Z,42.45
2022-12-22T06:15:41.683Z,40.60
2022-12-22T06:18:08.113Z,41.20
2022-12-22T06:20:34.508Z,38.70
2022-12-22T06:23:00.914Z,39.60
2022-12-22T06:25:30.191Z,41.65
2022-12-22T06:27:56.600Z,38.95
2022-12-22T06:30:29.099Z,41.78
2022-12-22T06:32:59.981Z,47.67
2022-12-22T06:35:26.391Z,41.42
2022-12-22T06:37:52.820Z,42.70
2022-12-22T06:40:22.127Z,42.33
2022-12-22T06:43:09.101Z,47.33
2022-12-22T06:45:41.034Z,42.70
2022-12-22T06:48:09.133Z,42.15
2022-12-22T06:50:35.620Z,40.10
2022-12-22T06:53:03.277Z,49.00
2022-12-22T06:55:33.436Z,40.50
2022-12-22T06:57:59.932Z,39.40
2022-12-22T07:00:29.558Z,39.63
2022-12-22T07:02:56.265Z,39.60
2022-12-22T07:05:26.378Z,41.53
2022-12-22T07:07:53.365Z,41.97
2022-12-22T07:10:39.919Z,37.13
2022-12-22T07:13:19.304Z,39.92
2022-12-22T07:15:52.069Z,40.13
2022-12-22T07:18:24.230Z,35.28
2022-12-22T07:20:50.643Z,44.47
2022-12-22T07:23:17.102Z,42.65
2022-12-22T07:25:47.282Z,37.03
2022-12-22T07:28:18.473Z,41.50
2022-12-22T07:30:47.035Z,39.22
2022-12-22T07:33:17.655Z,36.58
2022-12-22T07:35:44.222Z,37.05
2022-12-22T07:38:10.691Z,34.90
2022-12-22T07:40:42.393Z,42.35
2022-12-22T07:43:09.961Z,40.08
2022-12-22T07:45:36.499Z,38.92
2022-12-22T07:48:26.807Z,41.13
2022-12-22T07:51:04.535Z,30.13
2022-12-22T07:53:32.375Z,45.05
2022-12-22T07:56:01.782Z,41.75
2022-12-22T07:58:28.181Z,39.28
2022-12-22T08:01:01.270Z,36.97
2022-12-22T08:03:27.958Z,38.55
2022-12-22T08:05:57.341Z,41.10
2022-12-22T08:08:23.772Z,42.30
2022-12-22T08:10:50.163Z,34.65
2022-12-22T08:13:16.921Z,37.60
2022-12-22T08:15:43.325Z,42.58
2022-12-22T08:18:09.733Z,34.70
2022-12-22T08:20:38.747Z,36.35
2022-12-22T08:23:06.301Z,34.97
2022-12-22T08:25:33.988Z,40.25
2022-12-22T08:28:00.941Z,41.70
2022-12-22T08:30:28.345Z,39.00
2022-12-22T08:32:54.780Z,39.17
2022-12-22T08:35:21.239Z,42.30
2022-12-22T08:37:48.462Z,39.78
2022-12-22T08:40:20.818Z,39.15
2022-12-22T08:42:50.103Z,37.33
2022-12-22T08:45:16.521Z,40.08
2022-12-22T08:47:42.955Z,37.03
2022-12-22T08:50:09.977Z,37.60
2022-12-22T08:52:36.514Z,35.85
2022-12-22T08:55:03.229Z,36.20
2022-12-22T08:57:29.708Z,39.15
2022-12-22T08:59:56.178Z,34.65
2022-12-22T09:02:22.728Z,36.35
2022-12-22T09:04:49.255Z,33.83
2022-12-22T09:07:16.067Z,35.25
2022-12-22T09:09:42.484Z,35.65
2022-12-22T09:12:09.089Z,33.72
2022-12-22T09:14:35.494Z,32.35
2022-12-22T09:17:02.004Z,33.55
2022-12-22T09:19:28.460Z,33.67
2022-12-22T09:21:55.359Z,35.60
2022-12-22T09:24:21.797Z,33.70
2022-12-22T09:26:48.215Z,30.58
2022-12-22T09:29:15.422Z,33.55
2022-12-22T09:31:42.478Z,30.45
2022-12-22T09:34:15.169Z,29.52
2022-12-22T09:36:44.066Z,32.10
2022-12-22T09:39:11.008Z,32.30
2022-12-22T09:41:44.707Z,30.45
2022-12-22T09:44:40.348Z,31.23
2022-12-22T09:47:26.053Z,31.20
2022-12-22T09:49:55.967Z,32.47
2022-12-22T09:52:30.708Z,29.75
2022-12-22T09:54:57.120Z,29.90
2022-12-22T09:57:29.220Z,31.00
2022-12-22T09:59:58.008Z,30.83
2022-12-22T10:03:02.872Z,28.77
2022-12-22T10:05:42.004Z,28.50
2022-12-22T10:08:15.551Z,30.95
2022-12-22T10:10:42.551Z,28.33
2022-12-22T10:13:17.957Z,28.58
2022-12-22T10:15:44.677Z,31.90
2022-12-22T10:18:24.035Z,28.90
2022-12-22T10:21:05.632Z,28.15
2022-12-22T10:23:35.422Z,25.92
2022-12-22T10:26:31.888Z,26.70
2022-12-22T10:29:03.650Z,30.25
2022-12-22T10:31:35.140Z,31.52
2022-12-22T10:34:16.478Z,29.67
2022-12-22T10:36:48.661Z,28.75
2022-12-22T10:39:24.375Z,26.38
2022-12-22T10:41:55.082Z,31.33
2022-12-22T10:44:25.951Z,28.80
2022-12-22T10:46:55.212Z,25.95
2022-12-22T10:52:30.561Z,28.20
2022-12-22T10:55:18.518Z,27.67
2022-12-22T10:57:44.942Z,26.65
2022-12-22T11:00:29.506Z,31.08
2022-12-22T11:02:58.520Z,32.30
2022-12-22T11:05:25.580Z,25.65
2022-12-22T11:07:53.361Z,27.55
2022-12-22T11:10:43.520Z,29.15
2022-12-22T11:13:27.711Z,32.47
2022-12-22T11:16:00.187Z,27.48
2022-12-22T11:18:45.674Z,27.73
2022-12-22T11:21:24.277Z,29.52
2022-12-22T11:24:22.888Z,30.30
2022-12-22T11:27:05.080Z,25.85
2022-12-22T11:29:56.232Z,27.95
2022-12-22T11:32:37.469Z,26.27
2022-12-22T11:37:51.448Z,28.15
2022-12-22T11:40:34.656Z,24.67
2022-12-22T11:43:39.742Z,24.90
2022-12-22T11:46:41.568Z,25.15
2022-12-22T11:49:40.992Z,28.38
2022-12-22T11:52:21.446Z,26.13
2022-12-22T11:55:13.713Z,28.58
2022-12-22T11:57:48.920Z,32.95
2022-12-22T12:00:19.966Z,25.90
2022-12-22T12:05:40.219Z,25.70
2022-12-22T12:08:44.265Z,29.27
2022-12-22T12:11:32.394Z,24.90
2022-12-22T12:14:24.634Z,26.15
2022-12-22T12:17:18.091Z,23.20
2022-12-22T12:19:59.917Z,21.38
2022-12-22T12:22:52.016Z,25.25
2022-12-22T12:25:31.340Z,24.60
2022-12-22T12:28:19.408Z,24.67
2022-12-22T12:30:53.687Z,21.08
2022-12-22T12:33:46.706Z,22.80
2022-12-22T12:36:28.060Z,24.88
2022-12-22T12:39:33.939Z,23.85
2022-12-22T12:42:39.206Z,21.10
2022-12-22T12:45:38.420Z,21.90
2022-12-22T12:48:20.132Z,20.83
2022-12-22T12:51:32.388Z,20.10
2022-12-22T12:54:30.214Z,22.65
2022-12-22T12:57:23.113Z,18.98
2022-12-22T12:59:51.571Z,19.85
2022-12-22T13:02:27.302Z,18.73
2022-12-22T13:05:12.953Z,21.67
2022-12-22T13:08:14.575Z,18.25
2022-12-22T13:10:51.650Z,18.40
2022-12-22T13:13:23.876Z,19.65
2022-12-22T13:15:59.478Z,25.15
2022-12-22T13:18:26.066Z,21.85
2022-12-22T13:21:33.865Z,23.85
2022-12-22T13:24:28.526Z,22.75
2022-12-22T13:27:01.820Z,21.85
2022-12-22T13:29:44.210Z,21.90
2022-12-22T13:32:25.558Z,18.05
2022-12-22T13:38:00.019Z,20.98
2022-12-22T13:40:32.294Z,18.92
2022-12-22T13:43:05.086Z,18.33
2022-12-22T13:45:35.834Z,19.98
2022-12-22T13:48:08.331Z,26.42
2022-12-22T13:50:44.292Z,17.42
2022-12-22T13:53:34.456Z,16.95
2022-12-22T13:56:02.358Z,17.85
2022-12-22T13:58:33.844Z,17.77
2022-12-22T14:01:14.232Z,24.02
2022-12-22T14:04:00.357Z,22.30
2022-12-22T14:06:31.121Z,26.55
2022-12-22T14:09:29.813Z,24.67
2022-12-22T14:12:02.088Z,26.45
2022-12-22T14:14:33.920Z,26.40
2022-12-22T14:17:01.494Z,28.77
2022-12-22T14:19:32.808Z,22.23
2022-12-22T14:22:14.132Z,32.10
2022-12-22T14:25:03.293Z,28.58
2022-12-22T14:27:40.046Z,29.30
2022-12-22T14:30:14.979Z,25.20
2022-12-22T14:32:49.242Z,24.65
2022-12-22T14:35:20.615Z,23.98
2022-12-22T14:38:09.609Z,18.55
2022-12-22T14:40:38.818Z,22.10
2022-12-22T14:43:13.248Z,23.08
2022-12-22T14:45:39.840Z,20.42
2022-12-22T14:48:09.406Z,21.50
2022-12-22T14:50:36.570Z,26.02
2022-12-22T14:53:05.256Z,30.13
2022-12-22T14:55:39.567Z,25.40
2022-12-22T14:58:08.964Z,16.80
2022-12-22T15:00:41.628Z,18.77
2022-12-22T15:03:32.889Z,21.13
2022-12-22T15:06:24.222Z,17.35
2022-12-22T15:11:24.162Z,19.80
2022-12-22T15:13:54.699Z,19.77
2022-12-22T15:16:22.985Z,24.38
2022-12-22T15:18:52.864Z,20.55
2022-12-22T15:21:20.557Z,19.42
2022-12-22T15:23:47.296Z,22.52
2022-12-22T15:26:13.781Z,23.83
2022-12-22T15:28:40.273Z,33.70
2022-12-22T15:31:25.073Z,47.25
2022-12-22T15:33:52.850Z,30.27
2022-12-22T15:36:19.266Z,57.72
2022-12-22T15:38:45.674Z,47.45
2022-12-22T15:41:12.061Z,38.60
2022-12-22T15:43:57.151Z,26.73
2022-12-22T15:46:24.835Z,51.33
2022-12-22T15:48:51.411Z,27.30
2022-12-22T15:51:22.421Z,34.03
2022-12-22T15:56:20.286Z,34.10
2022-12-22T15:58:47.278Z,32.13
2022-12-22T16:01:13.705Z,30.17
2022-12-22T16:03:40.322Z,39.72
2022-12-22T16:06:13.488Z,32.13
2022-12-22T16:08:42.161Z,34.05
2022-12-22T16:11:09.082Z,31.98
2022-12-22T16:13:37.314Z,29.35
2022-12-22T16:16:04.140Z,34.95
2022-12-22T16:18:30.598Z,33.78
2022-12-22T16:21:04.534Z,35.25
2022-12-22T16:23:30.993Z,36.60
2022-12-22T16:26:02.028Z,30.30
2022-12-22T16:28:34.568Z,31.13
2022-12-22T16:31:01.315Z,26.60
2022-12-22T16:33:27.809Z,39.67
2022-12-22T16:35:54.209Z,44.33
2022-12-22T16:38:20.795Z,44.85
2022-12-22T16:40:50.362Z,35.25
2022-12-22T16:46:17.060Z,37.30
2022-12-22T16:48:56.698Z,33.33
2022-12-22T16:51:25.023Z,35.78
2022-12-22T16:53:51.644Z,37.33
2022-12-22T16:56:20.836Z,38.60
2022-12-22T16:58:47.939Z,38.05
2022-12-22T17:01:38.860Z,34.35
2022-12-22T17:04:13.558Z,36.53
2022-12-22T17:06:58.622Z,32.78
2022-12-22T17:09:39.758Z,39.03
2022-12-22T17:12:07.205Z,34.83
2022-12-22T17:14:38.582Z,40.90
2022-12-22T17:17:05.012Z,41.20
2022-12-22T17:19:31.404Z,37.97
2022-12-22T17:21:58.859Z,41.30
2022-12-22T17:24:28.485Z,41.97
2022-12-22T17:26:59.341Z,38.38
2022-12-22T17:29:25.825Z,39.47
2022-12-22T17:31:56.194Z,39.72
2022-12-22T17:34:22.780Z,52.83
2022-12-22T17:36:49.588Z,48.70
2022-12-22T17:39:21.016Z,105.03
2022-12-22T17:41:52.261Z,57.28
2022-12-22T17:44:37.534Z,50.47
2022-12-22T17:47:15.052Z,56.63
2022-12-22T17:50:07.413Z,56.10
2022-12-22T17:52:33.992Z,53.42
2022-12-22T17:55:00.394Z,57.70
2022-12-22T17:57:32.619Z,53.58
2022-12-22T18:00:18.182Z,45.35
2022-12-22T18:02:45.356Z,49.33
2022-12-22T18:05:24.527Z,50.28
2022-12-22T18:07:51.445Z,46.50
2022-12-22T18:10:22.634Z,52.90
2022-12-22T18:12:49.231Z,52.67
2022-12-22T18:15:22.427Z,53.97
2022-12-22T18:17:48.981Z,51.88
2022-12-22T18:20:21.021Z,47.03
2022-12-22T18:22:56.982Z,49.05
2022-12-22T18:25:26.792Z,53.55
2022-12-22T18:27:53.344Z,53.58
2022-12-22T18:30:22.699Z,57.83
2022-12-22T18:32:50.410Z,53.75
2022-12-22T18:35:18.759Z,50.65
2022-12-22T18:37:45.194Z,52.83
2022-12-22T18:40:38.450Z,59.88
2022-12-22T18:43:13.963Z,56.65
2022-12-22T18:45:40.556Z,53.95
2022-12-22T18:48:06.967Z,55.08
2022-12-22T18:50:34.035Z,46.33
2022-12-22T18:53:07.166Z,48.10
2022-12-22T18:55:33.570Z,45.03
2022-12-22T18:58:00.520Z,53.35
2022-12-22T19:00:29.660Z,43.72
2022-12-22T19:03:00.649Z,44.65
2022-12-22T19:07:55.441Z,52.15
2022-12-22T19:10:41.231Z,47.78
2022-12-22T19:13:17.493Z,54.83
2022-12-22T19:15:43.936Z,53.67
2022-12-22T19:18:18.679Z,55.10
2022-12-22T19:20:49.532Z,52.45
2022-12-22T19:23:17.937Z,47.08
2022-12-22T19:25:46.751Z,49.65
2022-12-22T19:28:27.059Z,49.72
2022-12-22T19:30:54.989Z,55.93
2022-12-22T19:33:35.573Z,52.97
2022-12-22T19:36:02.518Z,46.20
2022-12-22T19:38:30.366Z,56.38
2022-12-22T19:41:01.237Z,53.55
2022-12-22T19:43:29.183Z,54.05
2022-12-22T19:45:56.326Z,55.58
2022-12-22T19:48:24.840Z,53.50
2022-12-22T19:50:52.813Z,56.75
2022-12-22T19:53:19.901Z,51.08
2022-12-22T19:55:50.936Z,56.33
2022-12-22T20:00:54.356Z,58.85
2022-12-22T20:03:24.833Z,53.42
2022-12-22T20:05:52.028Z,57.30
2022-12-22T20:08:18.721Z,56.08
2022-12-22T20:10:46.542Z,57.42
2022-12-22T20:13:16.580Z,54.63
2022-12-22T20:15:43.809Z,60.85
2022-12-22T20:18:23.720Z,55.88
2022-12-22T20:20:57.790Z,51.72
2022-12-22T20:23:24.840Z,55.95
2022-12-22T20:26:03.774Z,54.47
2022-12-22T20:28:33.369Z,52.72
2022-12-22T20:31:02.424Z,59.42
2022-12-22T20:33:30.137Z,56.22
2022-12-22T20:35:58.573Z,60.33
2022-12-22T20:38:39.760Z,61.22
2022-12-22T20:43:36.175Z,67.32
2022-12-22T20:46:20.326Z,66.65
2022-12-22T20:48:53.823Z,62.67
2022-12-22T20:51:20.924Z,56.58
2022-12-22T20:53:48.190Z,60.53
2022-12-22T20:56:37.147Z,61.42
2022-12-22T20:59:20.119Z,55.00
2022-12-22T21:01:47.917Z,57.03
2022-12-22T21:04:15.763Z,64.03
2022-12-22T21:06:49.313Z,60.22
2022-12-22T21:09:16.423Z,64.68
2022-12-22T22:24:48.596Z,48.53
2022-12-22T22:27:15.021Z,48.35
2022-12-22T22:29:41.431Z,47.92
2022-12-22T22:32:07.847Z,47.53
2022-12-22T22:34:34.281Z,37.05
2022-12-22T22:37:00.743Z,36.28
2022-12-22T22:39:27.219Z,37.13
2022-12-22T22:41:53.640Z,44.13
2022-12-22T22:44:20.077Z,50.58
2022-12-22T22:46:46.611Z,43.22
2022-12-22T22:49:13.070Z,39.60
2022-12-22T22:51:39.478Z,42.35
2022-12-22T22:54:05.964Z,41.67
2022-12-22T22:56:32.387Z,43.70
2022-12-22T22:58:59.466Z,42.25
2022-12-22T23:01:25.913Z,43.40
2022-12-22T23:03:52.511Z,46.55
2022-12-22T23:06:19.987Z,43.45
2022-12-22T23:08:48.339Z,42.80
2022-12-22T23:11:15.060Z,42.47
2022-12-22T23:13:42.492Z,42.72
2022-12-22T23:16:09.532Z,46.63
2022-12-22T23:18:36.080Z,41.40
2022-12-22T23:21:05.058Z,47.50
2022-12-22T23:23:33.073Z,48.50
2022-12-22T23:25:59.492Z,42.72
2022-12-22T23:28:26.159Z,40.13
2022-12-22T23:30:53.228Z,46.90
2022-12-22T23:33:20.497Z,46.13
2022-12-22T23:35:49.227Z,48.17
2022-12-22T23:38:18.206Z,43.55
2022-12-22T23:41:00.050Z,45.60
2022-12-22T23:43:26.487Z,44.53
2022-12-22T23:45:52.890Z,46.72
2022-12-22T23:48:19.277Z,49.60
2022-12-22T23:50:46.653Z,45.15
2022-12-22T23:53:13.335Z,42.78
2022-12-22T23:55:47.363Z,49.28
2022-12-22T23:58:13.961Z,50.13
